sensor_id;sensor_type;location;lat;lon;timestamp;P1;durP1;ratioP1;P2;durP2;ratioP2
23728;SDS011;12045;60.214;24.724;2023-06-14T00:02:01;3.90;;;2.88;;
23728;SDS011;12045;60.214;24.724;2023-06-14T00:04:30;3.03;;;2.45;;
23728;SDS011;12045;60.214;24.724;2023-06-14T00:06:58;3.55;;;2.58;;
23728;SDS011;12045;60.214;24.724;2023-06-14T00:09:26;7.47;;;2.70;;
23728;SDS011;12045;60.214;24.724;2023-06-14T00:11:54;4.25;;;2.47;;
23728;SDS011;12045;60.214;24.724;2023-06-14T00:14:21;4.07;;;2.55;;
23728;SDS011;12045;60.214;24.724;2023-06-14T00:16:49;2.70;;;2.25;;
23728;SDS011;12045;60.214;24.724;2023-06-14T00:19:19;3.03;;;2.40;;
23728;SDS011;12045;60.214;24.724;2023-06-14T00:21:48;2.92;;;2.45;;
23728;SDS011;12045;60.214;24.724;2023-06-14T00:24:15;3.65;;;2.60;;
23728;SDS011;12045;60.214;24.724;2023-06-14T00:26:43;2.72;;;2.40;;
23728;SDS011;12045;60.214;24.724;2023-06-14T00:29:11;3.70;;;2.50;;
23728;SDS011;12045;60.214;24.724;2023-06-14T00:31:39;3.35;;;2.63;;
23728;SDS011;12045;60.214;24.724;2023-06-14T00:34:07;2.70;;;2.50;;
23728;SDS011;12045;60.214;24.724;2023-06-14T00:36:36;3.65;;;2.40;;
23728;SDS011;12045;60.214;24.724;2023-06-14T00:39:04;2.90;;;2.58;;
23728;SDS011;12045;60.214;24.724;2023-06-14T00:41:32;5.95;;;2.70;;
23728;SDS011;12045;60.214;24.724;2023-06-14T00:43:59;4.68;;;2.70;;
23728;SDS011;12045;60.214;24.724;2023-06-14T00:46:27;4.85;;;2.90;;
23728;SDS011;12045;60.214;24.724;2023-06-14T00:48:55;5.35;;;2.97;;
23728;SDS011;12045;60.214;24.724;2023-06-14T00:51:24;3.88;;;2.85;;
23728;SDS011;12045;60.214;24.724;2023-06-14T00:53:52;2.95;;;2.42;;
23728;SDS011;12045;60.214;24.724;2023-06-14T00:56:19;4.55;;;2.88;;
23728;SDS011;12045;60.214;24.724;2023-06-14T00:58:47;3.95;;;2.80;;
23728;SDS011;12045;60.214;24.724;2023-06-14T01:01:16;4.30;;;2.58;;
23728;SDS011;12045;60.214;24.724;2023-06-14T01:03:44;5.00;;;2.85;;
23728;SDS011;12045;60.214;24.724;2023-06-14T01:06:22;6.07;;;2.70;;
23728;SDS011;12045;60.214;24.724;2023-06-14T01:09:01;5.40;;;2.80;;
23728;SDS011;12045;60.214;24.724;2023-06-14T01:11:32;5.32;;;2.85;;
23728;SDS011;12045;60.214;24.724;2023-06-14T01:14:00;3.20;;;2.72;;
23728;SDS011;12045;60.214;24.724;2023-06-14T01:16:30;3.58;;;3.00;;
23728;SDS011;12045;60.214;24.724;2023-06-14T01:18:59;7.45;;;2.70;;
23728;SDS011;12045;60.214;24.724;2023-06-14T01:21:28;4.65;;;2.80;;
23728;SDS011;12045;60.214;24.724;2023-06-14T01:23:56;6.25;;;3.03;;
23728;SDS011;12045;60.214;24.724;2023-06-14T01:26:25;4.43;;;3.13;;
23728;SDS011;12045;60.214;24.724;2023-06-14T01:28:55;3.05;;;2.72;;
23728;SDS011;12045;60.214;24.724;2023-06-14T01:31:25;4.32;;;2.90;;
23728;SDS011;12045;60.214;24.724;2023-06-14T01:33:54;9.18;;;3.15;;
23728;SDS011;12045;60.214;24.724;2023-06-14T01:36:22;5.57;;;2.80;;
23728;SDS011;12045;60.214;24.724;2023-06-14T01:38:50;3.75;;;2.85;;
23728;SDS011;12045;60.214;24.724;2023-06-14T01:41:18;4.57;;;2.80;;
23728;SDS011;12045;60.214;24.724;2023-06-14T01:43:47;7.68;;;2.83;;
23728;SDS011;12045;60.214;24.724;2023-06-14T01:46:16;4.53;;;2.60;;
23728;SDS011;12045;60.214;24.724;2023-06-14T01:48:44;5.88;;;2.50;;
23728;SDS011;12045;60.214;24.724;2023-06-14T01:51:12;3.63;;;2.60;;
23728;SDS011;12045;60.214;24.724;2023-06-14T01:53:40;4.65;;;2.75;;
23728;SDS011;12045;60.214;24.724;2023-06-14T01:56:08;3.47;;;2.80;;
23728;SDS011;12045;60.214;24.724;2023-06-14T01:58:36;3.83;;;2.92;;
23728;SDS011;12045;60.214;24.724;2023-06-14T02:01:04;3.85;;;3.00;;
23728;SDS011;12045;60.214;24.724;2023-06-14T02:03:33;3.35;;;2.78;;
23728;SDS011;12045;60.214;24.724;2023-06-14T02:06:01;4.43;;;2.88;;
23728;SDS011;12045;60.214;24.724;2023-06-14T02:08:29;3.00;;;2.70;;
23728;SDS011;12045;60.214;24.724;2023-06-14T02:10:57;3.22;;;2.80;;
23728;SDS011;12045;60.214;24.724;2023-06-14T02:13:24;4.90;;;3.17;;
23728;SDS011;12045;60.214;24.724;2023-06-14T02:15:52;3.90;;;2.80;;
23728;SDS011;12045;60.214;24.724;2023-06-14T02:18:21;3.17;;;2.60;;
23728;SDS011;12045;60.214;24.724;2023-06-14T02:20:49;5.65;;;3.15;;
23728;SDS011;12045;60.214;24.724;2023-06-14T02:23:17;3.75;;;3.20;;
23728;SDS011;12045;60.214;24.724;2023-06-14T02:25:45;4.85;;;3.05;;
23728;SDS011;12045;60.214;24.724;2023-06-14T02:28:13;4.97;;;2.60;;
23728;SDS011;12045;60.214;24.724;2023-06-14T02:30:40;4.78;;;2.83;;
23728;SDS011;12045;60.214;24.724;2023-06-14T02:33:08;5.90;;;3.10;;
23728;SDS011;12045;60.214;24.724;2023-06-14T02:35:39;4.45;;;2.78;;
23728;SDS011;12045;60.214;24.724;2023-06-14T02:38:08;3.55;;;2.88;;
23728;SDS011;12045;60.214;24.724;2023-06-14T02:40:36;4.88;;;2.72;;
23728;SDS011;12045;60.214;24.724;2023-06-14T02:43:03;4.80;;;2.97;;
23728;SDS011;12045;60.214;24.724;2023-06-14T02:45:31;4.35;;;2.88;;
23728;SDS011;12045;60.214;24.724;2023-06-14T02:47:59;3.60;;;2.67;;
23728;SDS011;12045;60.214;24.724;2023-06-14T02:50:27;4.38;;;2.97;;
23728;SDS011;12045;60.214;24.724;2023-06-14T02:52:56;3.17;;;2.58;;
23728;SDS011;12045;60.214;24.724;2023-06-14T02:55:26;3.13;;;2.78;;
23728;SDS011;12045;60.214;24.724;2023-06-14T02:57:54;4.00;;;2.90;;
23728;SDS011;12045;60.214;24.724;2023-06-14T03:00:22;3.78;;;2.95;;
23728;SDS011;12045;60.214;24.724;2023-06-14T03:02:50;3.03;;;2.72;;
23728;SDS011;12045;60.214;24.724;2023-06-14T03:05:19;5.82;;;3.00;;
23728;SDS011;12045;60.214;24.724;2023-06-14T03:07:48;6.43;;;2.60;;
23728;SDS011;12045;60.214;24.724;2023-06-14T03:10:17;4.63;;;2.60;;
23728;SDS011;12045;60.214;24.724;2023-06-14T03:12:45;6.47;;;2.92;;
23728;SDS011;12045;60.214;24.724;2023-06-14T03:15:12;3.75;;;2.65;;
23728;SDS011;12045;60.214;24.724;2023-06-14T03:17:40;5.57;;;3.13;;
23728;SDS011;12045;60.214;24.724;2023-06-14T03:20:12;3.10;;;2.80;;
23728;SDS011;12045;60.214;24.724;2023-06-14T03:22:43;3.78;;;2.83;;
23728;SDS011;12045;60.214;24.724;2023-06-14T03:25:12;3.70;;;2.85;;
23728;SDS011;12045;60.214;24.724;2023-06-14T03:27:40;7.18;;;3.05;;
23728;SDS011;12045;60.214;24.724;2023-06-14T03:30:08;3.72;;;2.92;;
23728;SDS011;12045;60.214;24.724;2023-06-14T03:32:36;6.15;;;3.63;;
23728;SDS011;12045;60.214;24.724;2023-06-14T03:35:04;5.95;;;3.70;;
23728;SDS011;12045;60.214;24.724;2023-06-14T03:37:33;3.58;;;2.88;;
23728;SDS011;12045;60.214;24.724;2023-06-14T03:40:00;6.10;;;3.58;;
23728;SDS011;12045;60.214;24.724;2023-06-14T03:42:32;4.70;;;3.20;;
23728;SDS011;12045;60.214;24.724;2023-06-14T03:45:00;4.00;;;3.10;;
23728;SDS011;12045;60.214;24.724;2023-06-14T03:47:28;6.65;;;3.70;;
23728;SDS011;12045;60.214;24.724;2023-06-14T03:49:56;5.28;;;3.40;;
23728;SDS011;12045;60.214;24.724;2023-06-14T03:55:15;7.45;;;4.03;;
23728;SDS011;12045;60.214;24.724;2023-06-14T03:57:46;7.03;;;4.22;;
23728;SDS011;12045;60.214;24.724;2023-06-14T04:00:14;23.33;;;9.38;;
23728;SDS011;12045;60.214;24.724;2023-06-14T04:02:42;18.30;;;7.30;;
23728;SDS011;12045;60.214;24.724;2023-06-14T04:05:14;7.15;;;4.30;;
23728;SDS011;12045;60.214;24.724;2023-06-14T04:07:45;7.15;;;3.80;;
23728;SDS011;12045;60.214;24.724;2023-06-14T04:10:15;7.72;;;4.47;;
23728;SDS011;12045;60.214;24.724;2023-06-14T04:12:43;10.98;;;5.35;;
23728;SDS011;12045;60.214;24.724;2023-06-14T04:15:13;11.88;;;5.70;;
23728;SDS011;12045;60.214;24.724;2023-06-14T04:17:47;10.18;;;4.40;;
23728;SDS011;12045;60.214;24.724;2023-06-14T04:20:15;7.55;;;4.72;;
23728;SDS011;12045;60.214;24.724;2023-06-14T04:22:43;6.50;;;3.90;;
23728;SDS011;12045;60.214;24.724;2023-06-14T04:25:13;9.10;;;4.80;;
23728;SDS011;12045;60.214;24.724;2023-06-14T04:27:49;9.32;;;3.90;;
23728;SDS011;12045;60.214;24.724;2023-06-14T04:30:17;11.38;;;5.13;;
23728;SDS011;12045;60.214;24.724;2023-06-14T04:32:46;12.50;;;5.03;;
23728;SDS011;12045;60.214;24.724;2023-06-14T04:35:14;14.02;;;7.28;;
23728;SDS011;12045;60.214;24.724;2023-06-14T04:37:43;13.65;;;6.25;;
23728;SDS011;12045;60.214;24.724;2023-06-14T04:40:12;9.43;;;4.35;;
23728;SDS011;12045;60.214;24.724;2023-06-14T04:42:40;7.63;;;4.38;;
23728;SDS011;12045;60.214;24.724;2023-06-14T04:45:11;8.43;;;4.30;;
23728;SDS011;12045;60.214;24.724;2023-06-14T04:47:40;4.45;;;3.65;;
23728;SDS011;12045;60.214;24.724;2023-06-14T04:50:09;6.32;;;4.00;;
23728;SDS011;12045;60.214;24.724;2023-06-14T04:52:40;7.32;;;4.10;;
23728;SDS011;12045;60.214;24.724;2023-06-14T04:55:08;6.43;;;4.20;;
23728;SDS011;12045;60.214;24.724;2023-06-14T04:57:37;31.60;;;7.55;;
23728;SDS011;12045;60.214;24.724;2023-06-14T05:00:08;8.52;;;4.38;;
23728;SDS011;12045;60.214;24.724;2023-06-14T05:02:39;38.45;;;7.80;;
23728;SDS011;12045;60.214;24.724;2023-06-14T05:05:07;16.77;;;6.00;;
23728;SDS011;12045;60.214;24.724;2023-06-14T05:07:35;13.50;;;5.30;;
23728;SDS011;12045;60.214;24.724;2023-06-14T05:10:08;18.58;;;6.18;;
23728;SDS011;12045;60.214;24.724;2023-06-14T05:12:36;29.52;;;8.02;;
23728;SDS011;12045;60.214;24.724;2023-06-14T05:15:04;13.60;;;4.88;;
23728;SDS011;12045;60.214;24.724;2023-06-14T05:17:36;66.22;;;11.18;;
23728;SDS011;12045;60.214;24.724;2023-06-14T05:20:10;17.88;;;6.22;;
23728;SDS011;12045;60.214;24.724;2023-06-14T05:22:38;7.45;;;4.63;;
23728;SDS011;12045;60.214;24.724;2023-06-14T05:25:08;8.60;;;5.30;;
23728;SDS011;12045;60.214;24.724;2023-06-14T05:27:36;5.97;;;4.18;;
23728;SDS011;12045;60.214;24.724;2023-06-14T05:30:04;9.63;;;4.28;;
23728;SDS011;12045;60.214;24.724;2023-06-14T05:32:32;7.15;;;4.60;;
23728;SDS011;12045;60.214;24.724;2023-06-14T05:35:01;6.18;;;4.30;;
23728;SDS011;12045;60.214;24.724;2023-06-14T05:37:29;7.13;;;4.20;;
23728;SDS011;12045;60.214;24.724;2023-06-14T05:39:58;10.32;;;5.03;;
23728;SDS011;12045;60.214;24.724;2023-06-14T05:42:25;5.22;;;3.85;;
23728;SDS011;12045;60.214;24.724;2023-06-14T05:44:53;6.68;;;4.55;;
23728;SDS011;12045;60.214;24.724;2023-06-14T05:47:22;9.63;;;4.40;;
23728;SDS011;12045;60.214;24.724;2023-06-14T05:49:50;9.90;;;4.32;;
23728;SDS011;12045;60.214;24.724;2023-06-14T05:55:09;7.53;;;3.92;;
23728;SDS011;12045;60.214;24.724;2023-06-14T05:57:40;7.50;;;4.10;;
23728;SDS011;12045;60.214;24.724;2023-06-14T06:00:08;6.32;;;3.85;;
23728;SDS011;12045;60.214;24.724;2023-06-14T06:02:38;7.68;;;4.38;;
23728;SDS011;12045;60.214;24.724;2023-06-14T06:05:06;6.93;;;3.97;;
23728;SDS011;12045;60.214;24.724;2023-06-14T06:07:35;6.43;;;4.30;;
23728;SDS011;12045;60.214;24.724;2023-06-14T06:10:04;8.40;;;4.40;;
23728;SDS011;12045;60.214;24.724;2023-06-14T06:12:32;5.80;;;4.00;;
23728;SDS011;12045;60.214;24.724;2023-06-14T06:15:00;5.63;;;4.07;;
23728;SDS011;12045;60.214;24.724;2023-06-14T06:17:28;6.50;;;4.00;;
23728;SDS011;12045;60.214;24.724;2023-06-14T06:20:16;5.65;;;3.80;;
23728;SDS011;12045;60.214;24.724;2023-06-14T06:22:44;5.70;;;3.85;;
23728;SDS011;12045;60.214;24.724;2023-06-14T06:25:12;9.60;;;4.03;;
23728;SDS011;12045;60.214;24.724;2023-06-14T06:27:41;7.00;;;4.10;;
23728;SDS011;12045;60.214;24.724;2023-06-14T06:30:09;13.45;;;4.10;;
23728;SDS011;12045;60.214;24.724;2023-06-14T06:32:37;5.68;;;3.80;;
23728;SDS011;12045;60.214;24.724;2023-06-14T06:35:05;6.03;;;3.88;;
23728;SDS011;12045;60.214;24.724;2023-06-14T06:37:34;6.10;;;4.20;;
23728;SDS011;12045;60.214;24.724;2023-06-14T06:40:01;8.48;;;4.18;;
23728;SDS011;12045;60.214;24.724;2023-06-14T06:42:31;4.68;;;3.83;;
23728;SDS011;12045;60.214;24.724;2023-06-14T06:44:59;4.93;;;3.92;;
23728;SDS011;12045;60.214;24.724;2023-06-14T06:47:26;7.63;;;4.30;;
23728;SDS011;12045;60.214;24.724;2023-06-14T06:49:54;7.13;;;4.20;;
23728;SDS011;12045;60.214;24.724;2023-06-14T06:52:22;7.38;;;3.90;;
23728;SDS011;12045;60.214;24.724;2023-06-14T06:54:50;8.80;;;4.07;;
23728;SDS011;12045;60.214;24.724;2023-06-14T06:57:21;6.38;;;4.07;;
23728;SDS011;12045;60.214;24.724;2023-06-14T06:59:49;6.60;;;3.85;;
23728;SDS011;12045;60.214;24.724;2023-06-14T07:02:17;5.50;;;4.00;;
23728;SDS011;12045;60.214;24.724;2023-06-14T07:04:45;4.78;;;4.00;;
23728;SDS011;12045;60.214;24.724;2023-06-14T07:07:13;8.20;;;4.00;;
23728;SDS011;12045;60.214;24.724;2023-06-14T07:09:40;7.32;;;4.22;;
23728;SDS011;12045;60.214;24.724;2023-06-14T07:12:09;6.55;;;4.00;;
23728;SDS011;12045;60.214;24.724;2023-06-14T07:14:37;11.10;;;4.05;;
23728;SDS011;12045;60.214;24.724;2023-06-14T07:17:05;4.80;;;4.30;;
23728;SDS011;12045;60.214;24.724;2023-06-14T07:19:32;7.93;;;4.35;;
23728;SDS011;12045;60.214;24.724;2023-06-14T07:22:01;8.27;;;4.07;;
23728;SDS011;12045;60.214;24.724;2023-06-14T07:24:29;11.18;;;4.10;;
23728;SDS011;12045;60.214;24.724;2023-06-14T07:26:57;7.03;;;3.75;;
23728;SDS011;12045;60.214;24.724;2023-06-14T07:29:24;6.65;;;4.10;;
23728;SDS011;12045;60.214;24.724;2023-06-14T07:31:53;7.85;;;3.85;;
23728;SDS011;12045;60.214;24.724;2023-06-14T07:34:21;9.13;;;4.18;;
23728;SDS011;12045;60.214;24.724;2023-06-14T07:36:49;7.03;;;4.18;;
23728;SDS011;12045;60.214;24.724;2023-06-14T07:39:16;6.75;;;4.30;;
23728;SDS011;12045;60.214;24.724;2023-06-14T07:41:44;12.30;;;4.15;;
23728;SDS011;12045;60.214;24.724;2023-06-14T07:44:12;10.77;;;4.05;;
23728;SDS011;12045;60.214;24.724;2023-06-14T07:46:40;6.55;;;4.15;;
23728;SDS011;12045;60.214;24.724;2023-06-14T07:49:07;7.22;;;4.00;;
23728;SDS011;12045;60.214;24.724;2023-06-14T07:51:35;6.28;;;4.15;;
23728;SDS011;12045;60.214;24.724;2023-06-14T07:54:03;5.22;;;4.10;;
23728;SDS011;12045;60.214;24.724;2023-06-14T07:56:31;6.55;;;4.65;;
23728;SDS011;12045;60.214;24.724;2023-06-14T07:58:59;6.82;;;4.13;;
23728;SDS011;12045;60.214;24.724;2023-06-14T08:01:27;7.20;;;4.55;;
23728;SDS011;12045;60.214;24.724;2023-06-14T08:03:54;6.75;;;4.10;;
23728;SDS011;12045;60.214;24.724;2023-06-14T08:06:22;6.68;;;4.10;;
23728;SDS011;12045;60.214;24.724;2023-06-14T08:08:50;6.00;;;4.10;;
23728;SDS011;12045;60.214;24.724;2023-06-14T08:11:18;7.80;;;3.55;;
23728;SDS011;12045;60.214;24.724;2023-06-14T08:13:46;8.48;;;3.95;;
23728;SDS011;12045;60.214;24.724;2023-06-14T08:16:14;4.30;;;3.72;;
23728;SDS011;12045;60.214;24.724;2023-06-14T08:18:42;5.38;;;4.22;;
23728;SDS011;12045;60.214;24.724;2023-06-14T08:21:10;7.22;;;3.80;;
23728;SDS011;12045;60.214;24.724;2023-06-14T08:23:39;5.95;;;3.97;;
23728;SDS011;12045;60.214;24.724;2023-06-14T08:26:07;5.50;;;3.60;;
23728;SDS011;12045;60.214;24.724;2023-06-14T08:28:35;6.40;;;3.67;;
23728;SDS011;12045;60.214;24.724;2023-06-14T08:31:03;5.85;;;4.07;;
23728;SDS011;12045;60.214;24.724;2023-06-14T08:33:31;6.20;;;3.72;;
23728;SDS011;12045;60.214;24.724;2023-06-14T08:36:02;7.78;;;4.03;;
23728;SDS011;12045;60.214;24.724;2023-06-14T08:38:29;7.82;;;4.20;;
23728;SDS011;12045;60.214;24.724;2023-06-14T08:40:57;9.02;;;3.60;;
23728;SDS011;12045;60.214;24.724;2023-06-14T08:43:26;9.60;;;4.00;;
23728;SDS011;12045;60.214;24.724;2023-06-14T08:45:54;7.15;;;4.30;;
23728;SDS011;12045;60.214;24.724;2023-06-14T08:48:26;7.90;;;4.22;;
23728;SDS011;12045;60.214;24.724;2023-06-14T08:50:54;5.65;;;3.90;;
23728;SDS011;12045;60.214;24.724;2023-06-14T08:53:32;7.55;;;3.90;;
23728;SDS011;12045;60.214;24.724;2023-06-14T08:56:03;5.82;;;4.18;;
23728;SDS011;12045;60.214;24.724;2023-06-14T08:58:31;5.57;;;3.80;;
23728;SDS011;12045;60.214;24.724;2023-06-14T09:01:01;10.88;;;3.95;;
23728;SDS011;12045;60.214;24.724;2023-06-14T09:03:29;6.40;;;4.10;;
23728;SDS011;12045;60.214;24.724;2023-06-14T09:05:58;4.50;;;3.72;;
23728;SDS011;12045;60.214;24.724;2023-06-14T09:08:26;6.55;;;3.55;;
23728;SDS011;12045;60.214;24.724;2023-06-14T09:10:57;5.70;;;3.63;;
23728;SDS011;12045;60.214;24.724;2023-06-14T09:13:26;7.90;;;4.18;;
23728;SDS011;12045;60.214;24.724;2023-06-14T09:15:57;5.75;;;3.90;;
23728;SDS011;12045;60.214;24.724;2023-06-14T09:18:39;5.32;;;3.80;;
23728;SDS011;12045;60.214;24.724;2023-06-14T09:21:07;5.28;;;3.53;;
23728;SDS011;12045;60.214;24.724;2023-06-14T09:23:36;5.65;;;4.03;;
23728;SDS011;12045;60.214;24.724;2023-06-14T09:26:12;9.80;;;4.22;;
23728;SDS011;12045;60.214;24.724;2023-06-14T09:28:47;6.00;;;3.78;;
23728;SDS011;12045;60.214;24.724;2023-06-14T09:31:15;7.65;;;4.00;;
23728;SDS011;12045;60.214;24.724;2023-06-14T09:33:47;10.93;;;3.67;;
23728;SDS011;12045;60.214;24.724;2023-06-14T09:36:21;5.32;;;3.63;;
23728;SDS011;12045;60.214;24.724;2023-06-14T09:38:55;7.28;;;3.92;;
23728;SDS011;12045;60.214;24.724;2023-06-14T09:41:33;5.05;;;3.65;;
23728;SDS011;12045;60.214;24.724;2023-06-14T09:44:02;7.00;;;3.65;;
23728;SDS011;12045;60.214;24.724;2023-06-14T09:46:35;6.63;;;3.53;;
23728;SDS011;12045;60.214;24.724;2023-06-14T09:49:04;6.38;;;3.50;;
23728;SDS011;12045;60.214;24.724;2023-06-14T09:51:32;5.10;;;3.70;;
23728;SDS011;12045;60.214;24.724;2023-06-14T09:54:01;5.20;;;3.85;;
23728;SDS011;12045;60.214;24.724;2023-06-14T09:56:32;9.38;;;3.60;;
23728;SDS011;12045;60.214;24.724;2023-06-14T09:59:04;7.72;;;3.35;;
23728;SDS011;12045;60.214;24.724;2023-06-14T10:01:35;6.65;;;3.38;;
23728;SDS011;12045;60.214;24.724;2023-06-14T10:04:07;7.25;;;3.80;;
23728;SDS011;12045;60.214;24.724;2023-06-14T10:06:39;8.73;;;4.18;;
23728;SDS011;12045;60.214;24.724;2023-06-14T10:09:08;5.97;;;3.42;;
23728;SDS011;12045;60.214;24.724;2023-06-14T10:11:37;5.25;;;3.38;;
23728;SDS011;12045;60.214;24.724;2023-06-14T10:14:13;6.30;;;3.60;;
23728;SDS011;12045;60.214;24.724;2023-06-14T10:22:02;4.93;;;3.50;;
23728;SDS011;12045;60.214;24.724;2023-06-14T10:24:42;3.85;;;3.45;;
23728;SDS011;12045;60.214;24.724;2023-06-14T10:27:14;4.53;;;3.10;;
23728;SDS011;12045;60.214;24.724;2023-06-14T10:32:20;3.78;;;3.08;;
23728;SDS011;12045;60.214;24.724;2023-06-14T10:34:54;8.18;;;3.53;;
23728;SDS011;12045;60.214;24.724;2023-06-14T10:37:23;5.90;;;2.70;;
23728;SDS011;12045;60.214;24.724;2023-06-14T10:39:51;3.75;;;2.80;;
23728;SDS011;12045;60.214;24.724;2023-06-14T10:42:20;4.35;;;3.03;;
23728;SDS011;12045;60.214;24.724;2023-06-14T10:44:56;3.75;;;2.60;;
23728;SDS011;12045;60.214;24.724;2023-06-14T10:47:35;3.30;;;2.75;;
23728;SDS011;12045;60.214;24.724;2023-06-14T10:50:08;5.53;;;2.70;;
23728;SDS011;12045;60.214;24.724;2023-06-14T10:52:38;4.63;;;2.53;;
23728;SDS011;12045;60.214;24.724;2023-06-14T10:55:15;2.78;;;2.58;;
23728;SDS011;12045;60.214;24.724;2023-06-14T11:00:25;3.10;;;2.70;;
23728;SDS011;12045;60.214;24.724;2023-06-14T11:05:54;3.17;;;2.88;;
23728;SDS011;12045;60.214;24.724;2023-06-14T11:11:12;8.05;;;2.85;;
23728;SDS011;12045;60.214;24.724;2023-06-14T11:13:41;3.70;;;2.97;;
23728;SDS011;12045;60.214;24.724;2023-06-14T11:16:12;6.07;;;2.75;;
23728;SDS011;12045;60.214;24.724;2023-06-14T11:18:41;3.63;;;2.60;;
23728;SDS011;12045;60.214;24.724;2023-06-14T11:21:09;6.00;;;2.92;;
23728;SDS011;12045;60.214;24.724;2023-06-14T11:23:36;3.75;;;2.90;;
23728;SDS011;12045;60.214;24.724;2023-06-14T11:26:04;5.05;;;3.15;;
23728;SDS011;12045;60.214;24.724;2023-06-14T11:28:39;6.65;;;3.03;;
23728;SDS011;12045;60.214;24.724;2023-06-14T11:31:07;5.30;;;3.00;;
23728;SDS011;12045;60.214;24.724;2023-06-14T11:33:36;4.07;;;3.25;;
23728;SDS011;12045;60.214;24.724;2023-06-14T11:36:03;4.28;;;2.92;;
23728;SDS011;12045;60.214;24.724;2023-06-14T11:38:35;6.35;;;2.78;;
23728;SDS011;12045;60.214;24.724;2023-06-14T11:41:04;5.10;;;2.83;;
23728;SDS011;12045;60.214;24.724;2023-06-14T11:43:34;4.90;;;2.75;;
23728;SDS011;12045;60.214;24.724;2023-06-14T11:46:02;3.13;;;2.70;;
23728;SDS011;12045;60.214;24.724;2023-06-14T11:48:40;4.53;;;2.80;;
23728;SDS011;12045;60.214;24.724;2023-06-14T11:51:09;3.63;;;2.33;;
23728;SDS011;12045;60.214;24.724;2023-06-14T11:53:38;4.82;;;2.38;;
23728;SDS011;12045;60.214;24.724;2023-06-14T11:56:06;4.30;;;2.65;;
23728;SDS011;12045;60.214;24.724;2023-06-14T11:58:34;3.78;;;2.50;;
23728;SDS011;12045;60.214;24.724;2023-06-14T12:01:05;5.53;;;3.05;;
23728;SDS011;12045;60.214;24.724;2023-06-14T12:03:32;4.88;;;2.92;;
23728;SDS011;12045;60.214;24.724;2023-06-14T12:06:06;6.13;;;2.80;;
23728;SDS011;12045;60.214;24.724;2023-06-14T12:08:38;6.68;;;3.05;;
23728;SDS011;12045;60.214;24.724;2023-06-14T12:11:10;4.47;;;2.65;;
23728;SDS011;12045;60.214;24.724;2023-06-14T12:13:40;6.03;;;2.90;;
23728;SDS011;12045;60.214;24.724;2023-06-14T12:16:09;5.78;;;2.53;;
23728;SDS011;12045;60.214;24.724;2023-06-14T12:18:38;4.20;;;3.05;;
23728;SDS011;12045;60.214;24.724;2023-06-14T12:21:08;4.55;;;2.50;;
23728;SDS011;12045;60.214;24.724;2023-06-14T12:23:47;6.38;;;2.50;;
23728;SDS011;12045;60.214;24.724;2023-06-14T12:26:16;3.30;;;2.75;;
23728;SDS011;12045;60.214;24.724;2023-06-14T12:28:45;3.42;;;2.60;;
23728;SDS011;12045;60.214;24.724;2023-06-14T12:31:14;2.78;;;2.47;;
23728;SDS011;12045;60.214;24.724;2023-06-14T12:33:43;5.45;;;2.90;;
23728;SDS011;12045;60.214;24.724;2023-06-14T12:36:13;3.60;;;3.00;;
23728;SDS011;12045;60.214;24.724;2023-06-14T12:38:40;5.45;;;2.75;;
23728;SDS011;12045;60.214;24.724;2023-06-14T12:41:08;5.10;;;2.70;;
23728;SDS011;12045;60.214;24.724;2023-06-14T12:43:36;3.55;;;2.67;;
23728;SDS011;12045;60.214;24.724;2023-06-14T12:46:04;4.22;;;2.90;;
23728;SDS011;12045;60.214;24.724;2023-06-14T12:48:32;6.00;;;3.00;;
23728;SDS011;12045;60.214;24.724;2023-06-14T12:51:01;6.15;;;2.90;;
23728;SDS011;12045;60.214;24.724;2023-06-14T12:53:28;3.63;;;2.90;;
23728;SDS011;12045;60.214;24.724;2023-06-14T12:55:55;5.32;;;2.83;;
23728;SDS011;12045;60.214;24.724;2023-06-14T12:58:23;7.07;;;2.80;;
23728;SDS011;12045;60.214;24.724;2023-06-14T13:00:50;3.80;;;2.58;;
23728;SDS011;12045;60.214;24.724;2023-06-14T13:03:18;3.90;;;2.70;;
23728;SDS011;12045;60.214;24.724;2023-06-14T13:05:45;6.53;;;2.80;;
23728;SDS011;12045;60.214;24.724;2023-06-14T13:08:13;4.63;;;2.88;;
23728;SDS011;12045;60.214;24.724;2023-06-14T13:10:40;5.28;;;2.80;;
23728;SDS011;12045;60.214;24.724;2023-06-14T13:13:08;4.45;;;3.08;;
23728;SDS011;12045;60.214;24.724;2023-06-14T13:15:35;6.07;;;3.25;;
23728;SDS011;12045;60.214;24.724;2023-06-14T13:18:02;4.80;;;3.10;;
23728;SDS011;12045;60.214;24.724;2023-06-14T13:20:30;4.35;;;3.05;;
23728;SDS011;12045;60.214;24.724;2023-06-14T13:22:58;5.72;;;3.55;;
23728;SDS011;12045;60.214;24.724;2023-06-14T13:25:26;5.63;;;2.97;;
23728;SDS011;12045;60.214;24.724;2023-06-14T13:27:53;6.85;;;3.15;;
23728;SDS011;12045;60.214;24.724;2023-06-14T13:30:21;5.60;;;3.17;;
23728;SDS011;12045;60.214;24.724;2023-06-14T13:32:48;4.30;;;2.80;;
23728;SDS011;12045;60.214;24.724;2023-06-14T13:35:17;4.18;;;2.92;;
23728;SDS011;12045;60.214;24.724;2023-06-14T13:37:45;6.57;;;3.00;;
23728;SDS011;12045;60.214;24.724;2023-06-14T13:40:13;5.47;;;3.10;;
23728;SDS011;12045;60.214;24.724;2023-06-14T13:42:41;6.70;;;3.28;;
23728;SDS011;12045;60.214;24.724;2023-06-14T13:45:10;4.15;;;3.22;;
23728;SDS011;12045;60.214;24.724;2023-06-14T13:47:38;5.10;;;3.13;;
23728;SDS011;12045;60.214;24.724;2023-06-14T13:50:06;5.63;;;3.40;;
23728;SDS011;12045;60.214;24.724;2023-06-14T13:52:34;3.25;;;2.92;;
23728;SDS011;12045;60.214;24.724;2023-06-14T13:55:02;6.82;;;3.25;;
23728;SDS011;12045;60.214;24.724;2023-06-14T13:57:29;6.07;;;3.10;;
23728;SDS011;12045;60.214;24.724;2023-06-14T13:59:57;3.35;;;3.00;;
23728;SDS011;12045;60.214;24.724;2023-06-14T14:02:28;3.95;;;3.22;;
23728;SDS011;12045;60.214;24.724;2023-06-14T14:04:56;4.25;;;2.55;;
23728;SDS011;12045;60.214;24.724;2023-06-14T14:07:24;4.07;;;2.92;;
23728;SDS011;12045;60.214;24.724;2023-06-14T14:09:51;3.97;;;3.03;;
23728;SDS011;12045;60.214;24.724;2023-06-14T14:12:20;8.75;;;2.92;;
23728;SDS011;12045;60.214;24.724;2023-06-14T14:14:47;4.70;;;2.95;;
23728;SDS011;12045;60.214;24.724;2023-06-14T14:17:14;3.15;;;2.40;;
23728;SDS011;12045;60.214;24.724;2023-06-14T14:19:42;6.75;;;2.70;;
23728;SDS011;12045;60.214;24.724;2023-06-14T14:22:09;9.07;;;2.67;;
23728;SDS011;12045;60.214;24.724;2023-06-14T14:24:37;3.10;;;2.78;;
23728;SDS011;12045;60.214;24.724;2023-06-14T14:27:05;3.38;;;2.67;;
23728;SDS011;12045;60.214;24.724;2023-06-14T14:29:33;5.60;;;2.70;;
23728;SDS011;12045;60.214;24.724;2023-06-14T14:32:00;3.22;;;2.50;;
23728;SDS011;12045;60.214;24.724;2023-06-14T14:34:28;3.72;;;2.50;;
23728;SDS011;12045;60.214;24.724;2023-06-14T14:36:55;3.88;;;2.70;;
23728;SDS011;12045;60.214;24.724;2023-06-14T14:39:23;3.72;;;2.28;;
23728;SDS011;12045;60.214;24.724;2023-06-14T14:41:50;2.83;;;2.50;;
23728;SDS011;12045;60.214;24.724;2023-06-14T14:44:18;6.22;;;2.38;;
23728;SDS011;12045;60.214;24.724;2023-06-14T14:46:46;3.80;;;2.40;;
23728;SDS011;12045;60.214;24.724;2023-06-14T14:49:13;3.63;;;2.80;;
23728;SDS011;12045;60.214;24.724;2023-06-14T14:51:41;4.30;;;2.78;;
23728;SDS011;12045;60.214;24.724;2023-06-14T14:54:08;5.85;;;2.55;;
23728;SDS011;12045;60.214;24.724;2023-06-14T14:56:35;3.65;;;2.65;;
23728;SDS011;12045;60.214;24.724;2023-06-14T14:59:04;2.95;;;2.60;;
23728;SDS011;12045;60.214;24.724;2023-06-14T15:01:32;5.13;;;2.65;;
23728;SDS011;12045;60.214;24.724;2023-06-14T15:03:59;3.40;;;2.60;;
23728;SDS011;12045;60.214;24.724;2023-06-14T15:06:27;3.15;;;2.53;;